createdAt,value
2018-04-25T00:00:56.991Z,36.00
2018-04-25T00:01:57.131Z,37.20
2018-04-25T00:02:57.247Z,37.40
2018-04-25T00:03:57.038Z,39.50
2018-04-25T00:04:57.062Z,40.80
2018-04-25T00:05:57.193Z,41.30
2018-04-25T00:06:57.212Z,40.80
2018-04-25T00:07:57.204Z,38.10
2018-04-25T00:08:57.127Z,40.80
2018-04-25T00:09:57.137Z,42.50
2018-04-25T00:10:57.271Z,38.80
2018-04-25T00:11:57.174Z,37.20
2018-04-25T00:12:57.278Z,39.20
2018-04-25T00:13:57.319Z,41.60
2018-04-25T00:14:57.335Z,40.00
2018-04-25T00:15:57.243Z,42.10
2018-04-25T00:16:57.253Z,40.20
2018-04-25T00:17:57.367Z,41.80
2018-04-25T00:18:57.271Z,41.00
2018-04-25T00:19:57.293Z,34.00
2018-04-25T00:20:57.308Z,35.00
2018-04-25T00:21:57.318Z,33.70
2018-04-25T00:22:57.484Z,34.30
2018-04-25T00:23:57.348Z,35.40
2018-04-25T00:24:57.488Z,36.00
2018-04-25T00:25:57.505Z,36.80
2018-04-25T00:26:57.392Z,34.80
2018-04-25T00:27:57.567Z,35.10
2018-04-25T00:28:57.442Z,35.50
2018-04-25T00:29:57.445Z,37.00
2018-04-25T00:30:57.470Z,36.60
2018-04-25T00:31:57.479Z,36.00
2018-04-25T00:32:57.638Z,37.40
2018-04-25T00:33:57.633Z,37.70
2018-04-25T00:34:57.530Z,40.10
2018-04-25T00:35:57.659Z,40.50
2018-04-25T00:36:57.552Z,41.60
2018-04-25T00:37:57.680Z,43.30
2018-04-25T00:38:57.580Z,44.60
2018-04-25T00:39:57.604Z,46.70
2018-04-25T00:40:57.619Z,47.60
2018-04-25T00:41:57.756Z,48.60
2018-04-25T00:42:57.803Z,49.90
2018-04-25T00:43:57.657Z,48.90
2018-04-25T00:44:57.808Z,48.80
2018-04-25T00:45:57.702Z,49.00
2018-04-25T00:46:57.834Z,48.80
2018-04-25T00:47:58.046Z,47.20
2018-04-25T00:48:57.862Z,51.70
2018-04-25T00:49:57.750Z,51.20
2018-04-25T00:50:57.775Z,52.90
2018-04-25T00:51:57.906Z,51.60
2018-04-25T00:52:58.025Z,50.70
2018-04-25T00:53:57.826Z,49.10
2018-04-25T00:54:57.952Z,49.60
2018-04-25T00:55:57.854Z,50.20
2018-04-25T00:56:57.866Z,50.10
2018-04-25T00:57:58.024Z,48.00
2018-04-25T00:58:57.902Z,45.70
2018-04-25T00:59:57.908Z,47.70
2018-04-25T01:00:57.929Z,50.30
2018-04-25T01:01:57.933Z,47.20
2018-04-25T01:02:58.058Z,49.00
2018-04-25T01:03:58.093Z,50.10
2018-04-25T01:04:58.106Z,49.90
2018-04-25T01:05:58.127Z,48.50
2018-04-25T01:06:58.136Z,47.90
2018-04-25T01:07:58.176Z,46.90
2018-04-25T01:08:58.169Z,43.50
2018-04-25T01:09:58.059Z,47.30
2018-04-25T01:10:58.197Z,46.70
2018-04-25T01:11:58.264Z,45.50
2018-04-25T01:12:58.332Z,44.40
2018-04-25T01:13:58.126Z,41.30
2018-04-25T01:14:58.137Z,42.40
2018-04-25T01:15:58.157Z,41.40
2018-04-25T01:16:58.179Z,44.90
2018-04-25T01:17:58.292Z,42.00
2018-04-25T01:18:58.211Z,47.60
2018-04-25T01:19:58.223Z,50.00
2018-04-25T01:20:58.353Z,48.80
2018-04-25T01:21:58.250Z,45.40
2018-04-25T01:22:58.356Z,48.60
2018-04-25T01:23:58.399Z,46.70
2018-04-25T01:24:58.301Z,46.10
2018-04-25T01:25:58.433Z,47.20
2018-04-25T01:26:58.445Z,50.10
2018-04-25T01:27:58.609Z,51.10
2018-04-25T01:28:58.355Z,50.30
2018-04-25T01:29:58.491Z,49.10
2018-04-25T01:30:58.508Z,48.30
2018-04-25T01:31:58.520Z,50.40
2018-04-25T01:32:58.687Z,51.90
2018-04-25T01:33:58.425Z,53.80
2018-04-25T01:34:58.446Z,55.80
2018-04-25T01:35:58.457Z,55.10
2018-04-25T01:36:58.478Z,56.60
2018-04-25T01:37:58.715Z,53.70
2018-04-25T01:38:58.508Z,51.00
2018-04-25T01:39:58.515Z,50.20
2018-04-25T01:40:58.660Z,50.60
2018-04-25T01:41:58.545Z,54.20
2018-04-25T01:42:58.789Z,54.50
2018-04-25T01:43:58.590Z,55.90
2018-04-25T01:44:58.606Z,57.20
2018-04-25T01:45:58.615Z,57.30
2018-04-25T01:46:58.696Z,56.90
2018-04-25T01:47:58.919Z,56.90
2018-04-25T01:48:58.653Z,54.20
2018-04-25T01:49:58.793Z,56.70
2018-04-25T01:50:58.810Z,60.20
2018-04-25T01:51:58.705Z,66.20
2018-04-25T01:52:58.723Z,60.20
2018-04-25T01:53:58.955Z,60.30
2018-04-25T01:54:58.742Z,62.40
2018-04-25T01:55:58.764Z,60.40
2018-04-25T01:56:58.771Z,60.90
2018-04-25T01:57:58.794Z,63.30
2018-04-25T01:58:59.080Z,61.00
2018-04-25T01:59:58.948Z,58.40
2018-04-25T02:00:58.839Z,59.40
2018-04-25T02:01:58.845Z,61.50
2018-04-25T02:02:58.869Z,59.60
2018-04-25T02:03:59.001Z,61.10
2018-04-25T02:04:59.165Z,62.50
2018-04-25T02:05:58.905Z,60.20
2018-04-25T02:06:58.923Z,62.10
2018-04-25T02:07:58.949Z,59.60
2018-04-25T02:08:59.079Z,56.80
2018-04-25T02:09:59.243Z,58.30
2018-04-25T02:10:59.109Z,57.40
2018-04-25T02:11:59.006Z,56.30
2018-04-25T02:12:59.018Z,56.50
2018-04-25T02:13:59.154Z,50.90
2018-04-25T02:14:59.196Z,51.90
2018-04-25T02:15:59.054Z,52.70
2018-04-25T02:16:59.197Z,51.80
2018-04-25T02:17:59.210Z,53.50
2018-04-25T02:18:59.098Z,54.70
2018-04-25T02:19:59.264Z,53.20
2018-04-25T02:20:59.253Z,52.70
2018-04-25T02:21:59.268Z,50.50
2018-04-25T02:22:59.281Z,50.90
2018-04-25T02:23:59.179Z,51.20
2018-04-25T02:24:59.343Z,51.00
2018-04-25T02:25:59.203Z,51.60
2018-04-25T02:26:59.342Z,52.10
2018-04-25T02:27:59.359Z,55.20
2018-04-25T02:28:59.250Z,54.30
2018-04-25T02:29:59.373Z,56.70
2018-04-25T02:30:59.277Z,54.10
2018-04-25T02:31:59.298Z,55.50
2018-04-25T02:32:59.317Z,54.40
2018-04-25T02:33:59.448Z,54.30
2018-04-25T02:34:59.482Z,53.30
2018-04-25T02:35:59.472Z,53.90
2018-04-25T02:36:59.362Z,51.60
2018-04-25T02:37:59.384Z,53.10
2018-04-25T02:38:59.397Z,54.80
2018-04-25T02:39:59.633Z,57.60
2018-04-25T02:40:59.421Z,56.70
2018-04-25T02:41:59.563Z,55.80
2018-04-25T02:42:59.452Z,57.20
2018-04-25T02:43:59.473Z,56.70
2018-04-25T02:44:59.705Z,56.90
2018-04-25T02:45:59.620Z,56.20
2018-04-25T02:46:59.634Z,57.60
2018-04-25T02:47:59.532Z,56.20
2018-04-25T02:48:59.555Z,55.60
2018-04-25T02:49:59.553Z,55.40
2018-04-25T02:50:59.723Z,56.40
2018-04-25T02:51:59.746Z,57.40
2018-04-25T02:52:59.604Z,57.30
2018-04-25T02:53:59.614Z,57.40
2018-04-25T02:54:59.633Z,57.80
2018-04-25T02:55:59.771Z,58.70
2018-04-25T02:56:59.931Z,58.10
2018-04-25T02:57:59.682Z,58.00
2018-04-25T02:58:59.865Z,58.10
2018-04-25T02:59:59.697Z,58.00
2018-04-25T03:00:59.841Z,59.60
2018-04-25T03:01:59.829Z,59.90
2018-04-25T03:02:59.749Z,63.10
2018-04-25T03:03:59.883Z,62.60
2018-04-25T03:04:59.779Z,64.20
2018-04-25T03:05:59.913Z,65.10
2018-04-25T03:06:59.900Z,63.40
2018-04-25T03:07:59.942Z,68.20
2018-04-25T03:08:59.958Z,68.20
2018-04-25T03:09:59.854Z,68.10
2018-04-25T03:10:59.991Z,69.70
2018-04-25T03:11:59.978Z,70.80
2018-04-25T03:12:59.902Z,68.20
2018-04-25T03:13:59.908Z,69.50
2018-04-25T03:14:59.929Z,69.20
2018-04-25T03:15:59.928Z,69.20
2018-04-25T03:17:00.048Z,70.30
2018-04-25T03:17:59.968Z,70.30
2018-04-25T03:19:00.104Z,65.90
2018-04-25T03:20:00.000Z,68.60
2018-04-25T03:21:00.131Z,66.40
2018-04-25T03:22:00.120Z,66.80
2018-04-25T03:23:00.159Z,67.80
2018-04-25T03:24:00.050Z,67.30
2018-04-25T03:25:00.061Z,67.50
2018-04-25T03:26:00.202Z,67.30
2018-04-25T03:27:00.198Z,68.00
2018-04-25T03:28:00.118Z,70.00
2018-04-25T03:29:00.247Z,69.40
2018-04-25T03:30:00.263Z,67.40
2018-04-25T03:31:00.146Z,67.00
2018-04-25T03:32:00.390Z,66.80
2018-04-25T03:33:00.179Z,65.80
2018-04-25T03:34:00.200Z,64.70
2018-04-25T03:35:00.207Z,64.90
2018-04-25T03:36:00.359Z,66.50
2018-04-25T03:37:00.461Z,65.80
2018-04-25T03:38:00.249Z,64.60
2018-04-25T03:39:00.396Z,69.90
2018-04-25T03:40:00.281Z,69.40
2018-04-25T03:41:00.461Z,74.60
2018-04-25T03:42:00.533Z,73.60
2018-04-25T03:43:00.458Z,72.60
2018-04-25T03:44:00.348Z,70.70
2018-04-25T03:45:00.348Z,69.60
2018-04-25T03:46:00.493Z,70.50
2018-04-25T03:47:00.603Z,72.40
2018-04-25T03:48:00.518Z,75.50
2018-04-25T03:49:00.414Z,75.60
2018-04-25T03:50:00.420Z,73.50
2018-04-25T03:51:00.452Z,73.90
2018-04-25T03:52:00.552Z,70.50
2018-04-25T03:53:00.480Z,70.80
2018-04-25T03:54:00.500Z,69.60
2018-04-25T03:55:00.497Z,71.40
2018-04-25T03:56:00.634Z,72.50
2018-04-25T03:57:00.652Z,70.30
2018-04-25T03:58:00.635Z,73.30
2018-04-25T03:59:00.646Z,68.70
2018-04-25T04:00:00.588Z,68.70
2018-04-25T04:01:00.577Z,71.10
2018-04-25T04:02:00.601Z,70.90
2018-04-25T04:03:00.707Z,68.90
2018-04-25T04:04:00.748Z,67.60
2018-04-25T04:05:00.762Z,68.70
2018-04-25T04:06:00.779Z,68.70
2018-04-25T04:07:00.791Z,70.30
2018-04-25T04:08:00.908Z,70.10
2018-04-25T04:09:00.693Z,63.90
2018-04-25T04:10:00.704Z,67.30
2018-04-25T04:11:00.852Z,66.80
2018-04-25T04:12:00.736Z,71.00
2018-04-25T04:13:00.873Z,69.10
2018-04-25T04:14:00.893Z,69.90
2018-04-25T04:15:00.788Z,69.90
2018-04-25T04:16:00.795Z,72.40
2018-04-25T04:17:00.935Z,70.40
2018-04-25T04:18:00.922Z,69.10
2018-04-25T04:19:00.837Z,73.70
2018-04-25T04:20:00.850Z,74.30
2018-04-25T04:21:00.880Z,68.90
2018-04-25T04:22:00.892Z,74.20
2018-04-25T04:23:00.991Z,67.00
2018-04-25T04:24:01.036Z,64.80
2018-04-25T04:25:01.048Z,66.70
2018-04-25T04:26:01.065Z,67.10
2018-04-25T04:27:01.080Z,71.50
2018-04-25T04:28:01.094Z,71.00
2018-04-25T04:29:01.211Z,70.30
2018-04-25T04:30:01.001Z,80.30
2018-04-25T04:31:01.006Z,72.60
2018-04-25T04:32:01.150Z,76.10
2018-04-25T04:33:01.178Z,78.30
2018-04-25T04:34:01.278Z,77.30
2018-04-25T04:35:01.064Z,79.90
2018-04-25T04:36:01.077Z,78.40
2018-04-25T04:37:01.220Z,84.00
2018-04-25T04:38:01.110Z,78.10
2018-04-25T04:39:01.225Z,80.40
2018-04-25T04:40:01.135Z,79.00
2018-04-25T04:41:01.283Z,80.10
2018-04-25T04:42:01.167Z,83.60
2018-04-25T04:43:01.304Z,89.50
2018-04-25T04:44:01.300Z,81.30
2018-04-25T04:45:01.208Z,77.70
2018-04-25T04:46:01.349Z,78.20
2018-04-25T04:47:01.361Z,80.50
2018-04-25T04:48:01.377Z,72.50
2018-04-25T04:49:01.491Z,78.00
2018-04-25T04:50:01.407Z,74.80
2018-04-25T04:51:01.417Z,72.80
2018-04-25T04:52:01.435Z,77.90
2018-04-25T04:53:01.321Z,74.20
2018-04-25T04:54:01.562Z,75.20
2018-04-25T04:55:01.348Z,74.80
2018-04-25T04:56:01.369Z,78.70
2018-04-25T04:57:01.385Z,78.10
2018-04-25T04:58:01.521Z,73.70
2018-04-25T04:59:01.515Z,69.60
2018-04-25T05:00:01.548Z,72.00
2018-04-25T05:01:01.432Z,72.60
2018-04-25T05:02:01.575Z,76.90
2018-04-25T05:03:01.457Z,73.00
2018-04-25T05:04:01.603Z,74.20
2018-04-25T05:05:01.598Z,77.80
2018-04-25T05:06:01.633Z,71.10
2018-04-25T05:07:01.644Z,72.70
2018-04-25T05:08:01.531Z,77.20
2018-04-25T05:09:01.550Z,80.40
2018-04-25T05:10:01.675Z,73.10
2018-04-25T05:11:01.575Z,80.90
2018-04-25T05:12:01.600Z,78.60
2018-04-25T05:13:01.737Z,76.70
2018-04-25T05:14:01.746Z,75.90
2018-04-25T05:15:01.858Z,75.30
2018-04-25T05:16:01.770Z,79.30
2018-04-25T05:17:01.788Z,71.10
2018-04-25T05:18:01.681Z,77.10
2018-04-25T05:19:01.814Z,74.70
2018-04-25T05:20:01.814Z,77.90
2018-04-25T05:21:01.717Z,86.20
2018-04-25T05:22:01.736Z,84.50
2018-04-25T05:23:01.745Z,89.90
2018-04-25T05:24:01.884Z,86.80
2018-04-25T05:25:01.999Z,90.30
2018-04-25T05:26:01.800Z,86.80
2018-04-25T05:27:01.925Z,89.50
2018-04-25T05:28:01.943Z,88.80
2018-04-25T05:29:01.838Z,81.60
2018-04-25T05:30:01.940Z,82.50
2018-04-25T05:31:01.860Z,83.70
2018-04-25T05:32:01.890Z,80.90
2018-04-25T05:33:01.890Z,82.00
2018-04-25T05:34:02.025Z,73.40
2018-04-25T05:35:02.004Z,79.50
2018-04-25T05:36:01.931Z,84.00
2018-04-25T05:37:01.952Z,82.80
2018-04-25T05:38:02.080Z,92.00
2018-04-25T05:39:02.096Z,84.30
2018-04-25T05:40:02.087Z,88.90
2018-04-25T05:41:02.003Z,89.40
2018-04-25T05:42:02.017Z,88.60
2018-04-25T05:43:02.151Z,88.60
2018-04-25T05:44:02.166Z,91.10
2018-04-25T05:45:02.151Z,81.20
2018-04-25T05:46:02.096Z,96.20
2018-04-25T05:47:02.207Z,95.80
2018-04-25T05:48:02.223Z,100.10
2018-04-25T05:49:02.104Z,103.00
2018-04-25T05:50:02.221Z,93.50
2018-04-25T05:51:02.263Z,95.80
2018-04-25T05:52:02.274Z,98.00
2018-04-25T05:53:02.172Z,92.70
2018-04-25T05:54:02.176Z,94.60
2018-04-25T05:55:02.415Z,84.20
2018-04-25T05:56:02.205Z,82.00
2018-04-25T05:57:02.218Z,79.90
2018-04-25T05:58:02.244Z,79.30
2018-04-25T05:59:02.245Z,82.30
2018-04-25T06:00:02.368Z,83.60
2018-04-25T06:01:02.401Z,76.90
2018-04-25T06:02:02.297Z,85.60
2018-04-25T06:03:02.426Z,86.00
2018-04-25T06:04:02.323Z,88.00
2018-04-25T06:05:02.558Z,94.60
2018-04-25T06:06:02.352Z,95.10
2018-04-25T06:07:02.492Z,88.80
2018-04-25T06:08:02.503Z,92.20
2018-04-25T06:09:02.511Z,91.80
2018-04-25T06:10:02.514Z,94.40
2018-04-25T06:11:02.427Z,103.50
2018-04-25T06:12:02.441Z,105.30
2018-04-25T06:13:02.443Z,106.00
2018-04-25T06:14:02.463Z,107.90
2018-04-25T06:15:02.567Z,114.00
2018-04-25T06:16:02.609Z,115.80
2018-04-25T06:17:02.505Z,118.90
2018-04-25T06:18:02.510Z,114.30
2018-04-25T06:19:02.532Z,135.40
2018-04-25T06:20:02.540Z,152.80
2018-04-25T06:21:02.782Z,138.80
2018-04-25T06:22:02.578Z,153.80
2018-04-25T06:23:02.709Z,166.20
2018-04-25T06:24:02.602Z,171.40
2018-04-25T06:25:02.738Z,179.20
2018-04-25T06:26:02.849Z,169.40
2018-04-25T06:27:02.646Z,177.10
2018-04-25T06:28:02.777Z,193.50
2018-04-25T06:29:02.656Z,185.00
2018-04-25T06:30:02.679Z,184.70
2018-04-25T06:31:02.800Z,195.70
2018-04-25T06:32:02.836Z,191.00
2018-04-25T06:33:02.720Z,192.80
2018-04-25T06:34:02.859Z,179.80
2018-04-25T06:35:02.758Z,186.70
2018-04-25T06:36:02.987Z,185.30
2018-04-25T06:37:02.774Z,190.20
2018-04-25T06:38:02.928Z,180.20
2018-04-25T06:39:02.815Z,182.00
2018-04-25T06:40:02.944Z,186.00
2018-04-25T06:41:03.056Z,176.80
2018-04-25T06:42:02.846Z,183.00
2018-04-25T06:43:02.983Z,224.50
2018-04-25T06:44:02.874Z,254.00
2018-04-25T06:45:02.975Z,252.90
2018-04-25T06:46:03.125Z,231.20
2018-04-25T06:47:02.912Z,242.10
2018-04-25T06:48:02.937Z,253.00
2018-04-25T06:49:02.938Z,248.70
2018-04-25T06:50:03.082Z,236.60
2018-04-25T06:51:03.077Z,233.50
2018-04-25T06:52:02.979Z,234.70
2018-04-25T06:53:02.993Z,235.90
2018-04-25T06:54:03.134Z,228.80
2018-04-25T06:55:03.149Z,231.60
2018-04-25T06:56:03.261Z,217.30
2018-04-25T06:57:03.050Z,209.70
2018-04-25T06:58:03.073Z,222.70
2018-04-25T06:59:03.074Z,241.20
2018-04-25T07:00:03.221Z,229.70
2018-04-25T07:01:03.211Z,213.90
2018-04-25T07:02:03.245Z,218.60
2018-04-25T07:03:03.142Z,228.00
2018-04-25T07:04:03.149Z,227.50
2018-04-25T07:05:03.284Z,210.30
2018-04-25T07:06:03.398Z,230.60
2018-04-25T07:07:03.197Z,222.50
2018-04-25T07:08:03.431Z,210.30
2018-04-25T07:09:03.222Z,201.70
2018-04-25T07:10:03.356Z,200.00
2018-04-25T07:11:03.467Z,193.10
2018-04-25T07:12:03.253Z,183.90
2018-04-25T07:13:03.276Z,188.20
2018-04-25T07:14:03.469Z,178.10
2018-04-25T07:15:03.301Z,187.80
2018-04-25T07:16:03.534Z,181.10
2018-04-25T07:17:03.323Z,176.20
2018-04-25T07:18:03.461Z,169.50
2018-04-25T07:19:03.479Z,172.70
2018-04-25T07:20:03.366Z,174.90
2018-04-25T07:21:03.479Z,178.40
2018-04-25T07:22:03.392Z,186.90
2018-04-25T07:23:03.406Z,168.30
2018-04-25T07:24:03.549Z,176.60
2018-04-25T07:25:03.557Z,164.30
2018-04-25T07:26:03.459Z,179.60
2018-04-25T07:27:03.684Z,165.00
2018-04-25T07:28:03.468Z,169.60
2018-04-25T07:29:03.486Z,166.80
2018-04-25T07:30:03.498Z,157.50
2018-04-25T07:31:03.643Z,161.70
2018-04-25T07:32:03.805Z,151.30
2018-04-25T07:33:03.540Z,163.00
2018-04-25T07:34:03.566Z,155.70
2018-04-25T07:35:03.566Z,158.00
2018-04-25T07:36:03.589Z,152.70
2018-04-25T07:37:03.696Z,156.20
2018-04-25T07:38:03.736Z,145.50
2018-04-25T07:39:03.629Z,139.60
2018-04-25T07:40:03.636Z,150.00
2018-04-25T07:41:03.647Z,140.90
2018-04-25T07:42:03.790Z,134.80
2018-04-25T07:43:03.782Z,137.30
2018-04-25T07:44:03.702Z,137.50
2018-04-25T07:45:03.835Z,129.90
2018-04-25T07:46:03.847Z,132.20
2018-04-25T07:47:03.737Z,136.40
2018-04-25T07:48:03.844Z,132.10
2018-04-25T07:49:03.887Z,142.80
2018-04-25T07:50:03.784Z,149.30
2018-04-25T07:51:03.784Z,129.20
2018-04-25T07:52:03.810Z,130.00
2018-04-25T07:53:04.039Z,134.00
2018-04-25T07:54:03.838Z,133.00
2018-04-25T07:55:03.965Z,135.80
2018-04-25T07:56:03.851Z,140.20
2018-04-25T07:57:03.865Z,149.50
2018-04-25T07:58:04.108Z,158.90
2018-04-25T07:59:03.893Z,172.40
2018-04-25T08:00:03.914Z,167.60
2018-04-25T08:01:03.914Z,170.10
2018-04-25T08:02:04.061Z,169.80
2018-04-25T08:03:04.049Z,166.50
2018-04-25T08:04:04.089Z,174.70
2018-04-25T08:05:03.988Z,145.80
2018-04-25T08:06:04.125Z,164.20
2018-04-25T08:07:04.014Z,164.00
2018-04-25T08:08:04.114Z,156.60
2018-04-25T08:09:04.047Z,155.40
2018-04-25T08:10:04.172Z,160.80
2018-04-25T08:11:04.186Z,166.20
2018-04-25T08:12:04.195Z,179.00
2018-04-25T08:13:04.359Z,176.60
2018-04-25T08:14:04.096Z,171.80
2018-04-25T08:15:04.117Z,161.30
2018-04-25T08:16:04.248Z,163.20
2018-04-25T08:17:04.264Z,163.90
2018-04-25T08:18:04.364Z,141.60
2018-04-25T08:19:04.292Z,176.90
2018-04-25T08:20:04.189Z,166.60
2018-04-25T08:21:04.196Z,152.60
2018-04-25T08:22:04.205Z,149.50
2018-04-25T08:23:04.374Z,145.70
2018-04-25T08:24:04.359Z,148.60
2018-04-25T08:25:04.247Z,153.40
2018-04-25T08:26:04.265Z,148.00
2018-04-25T08:27:04.270Z,158.00
2018-04-25T08:28:04.562Z,148.30
2018-04-25T08:29:04.311Z,133.30
2018-04-25T08:30:04.314Z,132.80
2018-04-25T08:31:04.333Z,122.10
2018-04-25T08:32:04.349Z,128.20
2018-04-25T08:33:04.467Z,114.10
2018-04-25T08:34:04.496Z,116.00
2018-04-25T08:35:04.394Z,130.00
2018-04-25T08:36:04.398Z,119.70
2018-04-25T08:37:04.413Z,132.50
2018-04-25T08:38:04.651Z,107.90
2018-04-25T08:39:04.565Z,129.30
2018-04-25T08:40:04.457Z,117.80
2018-04-25T08:41:04.591Z,107.30
2018-04-25T08:42:04.477Z,107.30
2018-04-25T08:43:04.717Z,109.30
2018-04-25T08:44:04.504Z,132.40
2018-04-25T08:45:04.582Z,129.10
2018-04-25T08:46:04.541Z,134.80
2018-04-25T08:47:04.550Z,134.20
2018-04-25T08:48:04.568Z,122.70
2018-04-25T08:49:04.799Z,100.80
2018-04-25T08:50:04.717Z,100.50
2018-04-25T08:51:04.612Z,109.70
2018-04-25T08:52:04.620Z,120.20
2018-04-25T08:53:04.631Z,124.70
2018-04-25T08:54:04.749Z,129.20
2018-04-25T08:55:04.782Z,89.90
2018-04-25T08:56:04.673Z,120.40
2018-04-25T08:57:04.683Z,112.70
2018-04-25T08:58:04.704Z,137.20
2018-04-25T08:59:04.809Z,126.90
2018-04-25T09:00:04.733Z,122.40
2018-04-25T09:01:04.867Z,110.70
2018-04-25T09:02:04.878Z,115.90
2018-04-25T09:03:04.894Z,104.20
2018-04-25T09:04:04.791Z,98.70
2018-04-25T09:05:04.901Z,94.60
2018-04-25T09:06:04.805Z,97.90
2018-04-25T09:07:04.829Z,87.70
2018-04-25T09:08:04.836Z,96.20
2018-04-25T09:09:04.976Z,89.40
2018-04-25T09:10:04.977Z,81.70
2018-04-25T09:11:05.007Z,82.90
2018-04-25T09:12:04.909Z,90.50
2018-04-25T09:13:04.912Z,93.10
2018-04-25T09:14:04.921Z,103.70
2018-04-25T09:15:05.047Z,111.80
2018-04-25T09:16:05.076Z,84.20
2018-04-25T09:17:04.975Z,91.40
2018-04-25T09:18:05.105Z,85.60
2018-04-25T09:19:05.115Z,91.90
2018-04-25T09:20:05.110Z,82.50
2018-04-25T09:21:05.031Z,82.00
2018-04-25T09:22:05.029Z,85.00
2018-04-25T09:23:05.059Z,81.90
2018-04-25T09:24:05.185Z,80.60
2018-04-25T09:25:05.349Z,89.40
2018-04-25T09:26:05.096Z,95.30
2018-04-25T09:27:05.102Z,92.70
2018-04-25T09:28:05.118Z,84.90
2018-04-25T09:29:05.138Z,79.90
2018-04-25T09:30:05.246Z,94.50
2018-04-25T09:31:05.290Z,102.30
2018-04-25T09:32:05.298Z,106.10
2018-04-25T09:33:05.194Z,124.80
2018-04-25T09:34:05.199Z,132.10
2018-04-25T09:35:05.320Z,137.20
2018-04-25T09:36:05.240Z,137.90
2018-04-25T09:37:05.371Z,150.50
2018-04-25T09:38:05.270Z,177.90
2018-04-25T09:39:05.279Z,184.70
2018-04-25T09:40:05.562Z,182.30
2018-04-25T09:41:05.301Z,204.20
2018-04-25T09:42:05.443Z,190.60
2018-04-25T09:43:05.454Z,192.00
2018-04-25T09:44:05.345Z,188.60
2018-04-25T09:45:05.584Z,166.60
2018-04-25T09:46:05.378Z,168.40
2018-04-25T09:47:05.384Z,172.90
2018-04-25T09:48:05.407Z,175.30
2018-04-25T09:49:05.538Z,159.70
2018-04-25T09:50:05.657Z,156.50
2018-04-25T09:51:05.453Z,149.60
2018-04-25T09:52:05.453Z,157.60
2018-04-25T09:53:05.596Z,145.80
2018-04-25T09:54:05.499Z,140.60
2018-04-25T09:55:05.596Z,130.10
2018-04-25T09:56:05.524Z,114.10
2018-04-25T09:57:05.536Z,99.80
2018-04-25T09:58:05.738Z,96.30
2018-04-25T09:59:05.571Z,90.70
2018-04-25T10:00:05.674Z,85.90
2018-04-25T10:01:05.715Z,82.90
2018-04-25T10:02:05.609Z,86.10
2018-04-25T10:03:05.741Z,82.20
2018-04-25T10:04:05.648Z,82.90
2018-04-25T10:05:05.808Z,74.50
2018-04-25T10:06:05.787Z,78.40
2018-04-25T10:07:05.671Z,62.30
2018-04-25T10:08:05.820Z,64.40
2018-04-25T10:09:05.832Z,62.70
2018-04-25T10:10:05.950Z,59.30
2018-04-25T10:11:05.750Z,56.70
2018-04-25T10:12:05.880Z,55.10
2018-04-25T10:13:05.771Z,53.10
2018-04-25T10:14:05.793Z,52.90
2018-04-25T10:15:05.902Z,52.40
2018-04-25T10:16:05.824Z,49.10
2018-04-25T10:17:05.994Z,46.90
2018-04-25T10:18:05.977Z,48.30
2018-04-25T10:19:05.993Z,45.60
2018-04-25T10:20:06.109Z,44.10
2018-04-25T10:21:05.903Z,41.00
2018-04-25T10:22:05.915Z,44.90
2018-04-25T10:23:05.931Z,43.30
2018-04-25T10:24:05.973Z,45.70
2018-04-25T10:25:06.074Z,45.00
2018-04-25T10:26:05.984Z,43.30
2018-04-25T10:27:06.190Z,41.00
2018-04-25T10:28:06.019Z,41.10
2018-04-25T10:29:06.040Z,39.90
2018-04-25T10:30:06.171Z,37.20
2018-04-25T10:31:06.091Z,36.20
2018-04-25T10:32:06.287Z,38.20
2018-04-25T10:33:06.238Z,39.00
2018-04-25T10:34:06.126Z,38.30
2018-04-25T10:35:06.258Z,40.10
2018-04-25T10:36:06.161Z,37.50
2018-04-25T10:37:06.306Z,39.40
2018-04-25T10:38:06.207Z,38.20
2018-04-25T10:39:06.217Z,36.20
2018-04-25T10:40:06.350Z,36.30
2018-04-25T10:41:06.380Z,33.60
2018-04-25T10:42:06.399Z,30.30
2018-04-25T10:43:06.292Z,31.60
2018-04-25T10:44:06.475Z,29.60
2018-04-25T10:45:06.431Z,28.80
2018-04-25T10:46:06.477Z,29.40
2018-04-25T10:47:06.493Z,27.60
2018-04-25T10:48:06.390Z,27.50
2018-04-25T10:49:06.404Z,27.70
2018-04-25T10:50:06.552Z,26.80
2018-04-25T10:51:06.451Z,27.20
2018-04-25T10:52:06.476Z,26.80
2018-04-25T10:53:06.610Z,28.00
2018-04-25T10:54:06.533Z,25.90
2018-04-25T10:55:06.749Z,26.90
2018-04-25T10:56:06.547Z,26.60
2018-04-25T10:57:06.575Z,28.30
2018-04-25T10:58:06.708Z,27.00
2018-04-25T10:59:06.613Z,29.20
2018-04-25T11:00:06.724Z,31.40
2018-04-25T11:01:06.640Z,32.40
2018-04-25T11:02:06.724Z,32.50
2018-04-25T11:03:06.680Z,32.60
2018-04-25T11:04:06.712Z,31.20
2018-04-25T11:05:06.827Z,32.00
2018-04-25T11:06:06.740Z,33.60
2018-04-25T11:07:06.886Z,32.50
2018-04-25T11:08:06.783Z,30.20
2018-04-25T11:09:06.804Z,31.20
2018-04-25T11:10:07.045Z,27.80
2018-04-25T11:11:06.845Z,29.20
2018-04-25T11:12:06.872Z,27.30
2018-04-25T11:13:07.007Z,26.20
2018-04-25T11:14:06.899Z,24.00
2018-04-25T11:15:07.025Z,23.70
2018-04-25T11:16:06.953Z,25.00
2018-04-25T11:17:07.086Z,26.70
2018-04-25T11:18:07.109Z,30.30
2018-04-25T11:19:07.127Z,26.20
2018-04-25T11:20:07.122Z,26.30
2018-04-25T11:21:07.045Z,25.00
2018-04-25T11:22:07.187Z,26.80
2018-04-25T11:23:07.080Z,24.90
2018-04-25T11:24:07.106Z,26.80
2018-04-25T11:25:07.235Z,24.70
2018-04-25T11:26:07.148Z,25.50
2018-04-25T11:27:07.172Z,25.80
2018-04-25T11:28:07.176Z,26.60
2018-04-25T11:29:07.194Z,27.40
2018-04-25T11:30:07.321Z,27.30
2018-04-25T11:31:07.238Z,25.60
2018-04-25T11:32:07.386Z,25.50
2018-04-25T11:33:07.292Z,25.20
2018-04-25T11:34:07.429Z,26.20
2018-04-25T11:35:07.429Z,26.20
2018-04-25T11:36:07.348Z,27.00
2018-04-25T11:37:07.360Z,28.30
2018-04-25T11:38:07.395Z,29.20
2018-04-25T11:39:07.395Z,29.80
2018-04-25T11:40:07.433Z,28.80
2018-04-25T11:41:07.667Z,30.30
2018-04-25T11:42:07.587Z,28.50
2018-04-25T11:43:07.487Z,29.10
2018-04-25T11:44:07.626Z,29.30
2018-04-25T11:45:07.647Z,28.40
2018-04-25T11:46:07.640Z,29.90
2018-04-25T11:47:07.672Z,28.40
2018-04-25T11:48:07.580Z,28.50
2018-04-25T11:49:07.602Z,30.10
2018-04-25T11:50:07.745Z,30.90
2018-04-25T11:51:07.749Z,32.30
2018-04-25T11:52:07.785Z,30.70
2018-04-25T11:53:07.807Z,28.90
2018-04-25T11:54:07.702Z,28.60
2018-04-25T11:55:07.843Z,28.50
2018-04-25T11:56:07.844Z,31.80
2018-04-25T11:57:07.887Z,31.60
2018-04-25T11:58:07.903Z,33.70
2018-04-25T11:59:07.798Z,32.20
2018-04-25T12:00:07.943Z,31.80
2018-04-25T12:01:08.070Z,30.90
2018-04-25T12:02:07.858Z,30.10
2018-04-25T12:03:07.884Z,30.40
2018-04-25T12:04:08.023Z,30.10
2018-04-25T12:05:08.002Z,30.30
2018-04-25T12:06:08.049Z,30.80
2018-04-25T12:07:07.959Z,32.10
2018-04-25T12:08:08.102Z,32.50
2018-04-25T12:09:08.010Z,32.60
2018-04-25T12:10:08.011Z,34.40
2018-04-25T12:11:08.266Z,35.60
2018-04-25T12:12:08.058Z,35.20
2018-04-25T12:13:08.105Z,34.60
2018-04-25T12:14:08.103Z,34.70
2018-04-25T12:15:08.242Z,34.80
2018-04-25T12:16:08.362Z,35.90
2018-04-25T12:17:08.156Z,36.30
2018-04-25T12:18:08.184Z,35.20
2018-04-25T12:19:08.198Z,36.70
2018-04-25T12:20:08.224Z,35.20
2018-04-25T12:21:08.351Z,34.90
2018-04-25T12:22:08.382Z,36.50
2018-04-25T12:23:08.406Z,36.60
2018-04-25T12:24:08.312Z,38.00
2018-04-25T12:25:08.331Z,36.00
2018-04-25T12:26:08.438Z,36.50
2018-04-25T12:27:08.381Z,38.90
2018-04-25T12:28:08.504Z,38.10
2018-04-25T12:29:08.525Z,38.10
2018-04-25T12:30:08.418Z,38.90
2018-04-25T12:31:08.573Z,37.80
2018-04-25T12:32:08.459Z,38.10
2018-04-25T12:33:08.608Z,38.00
2018-04-25T12:34:08.628Z,36.40
2018-04-25T12:35:08.647Z,39.20
2018-04-25T12:36:08.651Z,37.90
2018-04-25T12:37:08.607Z,37.60
2018-04-25T12:38:08.582Z,36.30
2018-04-25T12:40:08.618Z,35.90
2018-04-25T12:41:08.740Z,34.40
2018-04-25T12:42:08.660Z,34.20
2018-04-25T12:43:08.679Z,33.70
2018-04-25T12:44:08.824Z,35.00
2018-04-25T12:45:08.731Z,36.30
2018-04-25T12:46:08.963Z,37.50
2018-04-25T12:47:08.758Z,36.90
2018-04-25T12:48:08.775Z,38.00